sensor_id;sensor_type;location;lat;lon;timestamp;pressure;altitude;pressure_sealevel;temperature;humidity
69239;BME280;56349;51.816;-0.026;2023-01-29T00:01:07;102453.46;;;21.38;32.40
69239;BME280;56349;51.816;-0.026;2023-01-29T00:03:31;102449.94;;;21.49;32.52
69239;BME280;56349;51.816;-0.026;2023-01-29T00:05:57;102452.50;;;21.62;32.65
69239;BME280;56349;51.816;-0.026;2023-01-29T00:08:23;102453.96;;;21.00;32.81
69239;BME280;56349;51.816;-0.026;2023-01-29T00:10:48;102452.58;;;21.37;32.93
69239;BME280;56349;51.816;-0.026;2023-01-29T00:13:14;102449.47;;;20.97;33.06
69239;BME280;56349;51.816;-0.026;2023-01-29T00:15:40;102445.95;;;20.86;33.19
69239;BME280;56349;51.816;-0.026;2023-01-29T00:18:06;102447.43;;;21.03;33.29
69239;BME280;56349;51.816;-0.026;2023-01-29T00:20:32;102449.30;;;20.66;33.40
69239;BME280;56349;51.816;-0.026;2023-01-29T00:22:58;102442.37;;;20.82;33.51
69239;BME280;56349;51.816;-0.026;2023-01-29T00:25:24;102441.58;;;20.73;33.62
69239;BME280;56349;51.816;-0.026;2023-01-29T00:27:50;102437.50;;;20.64;33.71
69239;BME280;56349;51.816;-0.026;2023-01-29T00:30:16;102438.03;;;20.55;33.81
69239;BME280;56349;51.816;-0.026;2023-01-29T00:32:41;102434.87;;;20.70;33.91
69239;BME280;56349;51.816;-0.026;2023-01-29T00:35:08;102438.05;;;20.38;33.98
69239;BME280;56349;51.816;-0.026;2023-01-29T00:37:32;102443.93;;;20.52;34.08
69239;BME280;56349;51.816;-0.026;2023-01-29T00:39:58;102444.39;;;20.24;34.15
69239;BME280;56349;51.816;-0.026;2023-01-29T00:42:24;102445.57;;;20.17;34.22
69239;BME280;56349;51.816;-0.026;2023-01-29T00:44:50;102446.02;;;20.10;34.30
69239;BME280;56349;51.816;-0.026;2023-01-29T00:47:15;102451.55;;;20.03;34.36
69239;BME280;56349;51.816;-0.026;2023-01-29T00:49:41;102448.52;;;20.17;34.44
69239;BME280;56349;51.816;-0.026;2023-01-29T00:52:07;102444.51;;;20.33;34.51
69239;BME280;56349;51.816;-0.026;2023-01-29T00:54:33;102444.03;;;20.05;34.58
69239;BME280;56349;51.816;-0.026;2023-01-29T00:56:59;102442.64;;;19.99;34.63
69239;BME280;56349;51.816;-0.026;2023-01-29T00:59:25;102439.33;;;19.94;34.67
69239;BME280;56349;51.816;-0.026;2023-01-29T01:01:50;102433.29;;;19.67;34.74
69239;BME280;56349;51.816;-0.026;2023-01-29T01:04:16;102426.43;;;20.07;34.76
69239;BME280;56349;51.816;-0.026;2023-01-29T01:06:42;102422.99;;;20.02;34.80
69239;BME280;56349;51.816;-0.026;2023-01-29T01:09:09;102418.20;;;19.54;34.84
69239;BME280;56349;51.816;-0.026;2023-01-29T01:11:34;102413.64;;;19.94;34.88
69239;BME280;56349;51.816;-0.026;2023-01-29T01:13:59;102403.13;;;19.89;34.92
69239;BME280;56349;51.816;-0.026;2023-01-29T01:16:25;102403.48;;;19.85;34.94
69239;BME280;56349;51.816;-0.026;2023-01-29T01:18:50;102405.02;;;19.82;34.97
69239;BME280;56349;51.816;-0.026;2023-01-29T01:21:16;102407.90;;;19.77;35.01
69239;BME280;56349;51.816;-0.026;2023-01-29T01:23:42;102404.21;;;19.50;35.07
69239;BME280;56349;51.816;-0.026;2023-01-29T01:26:09;102404.07;;;19.68;35.10
69239;BME280;56349;51.816;-0.026;2023-01-29T01:28:34;102405.89;;;19.64;35.13
69239;BME280;56349;51.816;-0.026;2023-01-29T01:31:08;102409.08;;;19.61;35.16
69239;BME280;56349;51.816;-0.026;2023-01-29T01:33:24;102409.95;;;19.57;35.19
69239;BME280;56349;51.816;-0.026;2023-01-29T01:35:50;102406.49;;;19.52;35.24
69239;BME280;56349;51.816;-0.026;2023-01-29T01:38:16;102405.67;;;19.45;35.30
69239;BME280;56349;51.816;-0.026;2023-01-29T01:40:44;102404.97;;;19.38;35.35
69239;BME280;56349;51.816;-0.026;2023-01-29T01:43:09;102400.03;;;19.34;35.38
69239;BME280;56349;51.816;-0.026;2023-01-29T01:45:34;102398.61;;;19.31;35.41
69239;BME280;56349;51.816;-0.026;2023-01-29T01:48:01;102401.83;;;19.27;35.43
69239;BME280;56349;51.816;-0.026;2023-01-29T01:50:28;102404.64;;;19.50;35.47
69239;BME280;56349;51.816;-0.026;2023-01-29T01:52:52;102403.44;;;19.20;35.48
69239;BME280;56349;51.816;-0.026;2023-01-29T01:55:18;102403.71;;;19.66;35.50
69239;BME280;56349;51.816;-0.026;2023-01-29T01:57:43;102401.10;;;19.14;35.52
69239;BME280;56349;51.816;-0.026;2023-01-29T02:00:09;102407.72;;;19.10;35.54
69239;BME280;56349;51.816;-0.026;2023-01-29T02:02:32;102413.31;;;19.08;35.56
69239;BME280;56349;51.816;-0.026;2023-01-29T02:04:58;102414.42;;;19.33;35.55
69239;BME280;56349;51.816;-0.026;2023-01-29T02:07:23;102416.27;;;19.03;35.57
69239;BME280;56349;51.816;-0.026;2023-01-29T02:09:51;102416.70;;;18.99;35.60
69239;BME280;56349;51.816;-0.026;2023-01-29T02:12:15;102415.38;;;19.20;35.64
69239;BME280;56349;51.816;-0.026;2023-01-29T02:14:41;102419.11;;;19.17;35.65
69239;BME280;56349;51.816;-0.026;2023-01-29T02:17:07;102418.32;;;19.15;35.66
69239;BME280;56349;51.816;-0.026;2023-01-29T02:19:39;102418.90;;;19.34;35.68
69239;BME280;56349;51.816;-0.026;2023-01-29T02:22:10;102421.26;;;19.10;35.69
69239;BME280;56349;51.816;-0.026;2023-01-29T02:24:32;102421.16;;;19.06;35.71
69239;BME280;56349;51.816;-0.026;2023-01-29T02:26:55;102419.67;;;19.03;35.72
69239;BME280;56349;51.816;-0.026;2023-01-29T02:29:17;102418.18;;;18.74;35.72
69239;BME280;56349;51.816;-0.026;2023-01-29T02:31:41;102413.02;;;18.71;35.72
69239;BME280;56349;51.816;-0.026;2023-01-29T02:34:10;102414.11;;;19.19;35.72
69239;BME280;56349;51.816;-0.026;2023-01-29T02:36:35;102414.44;;;18.94;35.73
69239;BME280;56349;51.816;-0.026;2023-01-29T02:38:59;102417.87;;;18.90;35.75
69239;BME280;56349;51.816;-0.026;2023-01-29T02:41:25;102415.64;;;18.89;35.82
69239;BME280;56349;51.816;-0.026;2023-01-29T02:43:46;102413.40;;;19.07;35.76
69239;BME280;56349;51.816;-0.026;2023-01-29T02:46:16;102415.04;;;19.04;35.78
69239;BME280;56349;51.816;-0.026;2023-01-29T02:48:40;102412.56;;;19.00;35.80
69239;BME280;56349;51.816;-0.026;2023-01-29T02:51:04;102404.06;;;18.98;35.81
69239;BME280;56349;51.816;-0.026;2023-01-29T02:53:32;102399.12;;;18.93;35.83
69239;BME280;56349;51.816;-0.026;2023-01-29T02:55:55;102395.66;;;18.89;35.86
69239;BME280;56349;51.816;-0.026;2023-01-29T02:58:23;102391.61;;;18.85;35.89
69239;BME280;56349;51.816;-0.026;2023-01-29T03:00:46;102390.76;;;18.62;35.89
69239;BME280;56349;51.816;-0.026;2023-01-29T03:03:13;102385.08;;;18.60;35.89
69239;BME280;56349;51.816;-0.026;2023-01-29T03:05:38;102380.43;;;18.80;35.90
69239;BME280;56349;51.816;-0.026;2023-01-29T03:08:05;102377.42;;;18.80;35.89
69239;BME280;56349;51.816;-0.026;2023-01-29T03:10:29;102379.61;;;18.80;35.86
69239;BME280;56349;51.816;-0.026;2023-01-29T03:12:53;102377.27;;;18.81;35.82
69239;BME280;56349;51.816;-0.026;2023-01-29T03:15:20;102377.60;;;18.79;35.82
69239;BME280;56349;51.816;-0.026;2023-01-29T03:17:46;102373.44;;;18.53;35.83
69239;BME280;56349;51.816;-0.026;2023-01-29T03:20:12;102372.26;;;18.73;35.85
69239;BME280;56349;51.816;-0.026;2023-01-29T03:22:34;102365.67;;;18.71;35.85
69239;BME280;56349;51.816;-0.026;2023-01-29T03:25:01;102365.33;;;18.68;35.86
69239;BME280;56349;51.816;-0.026;2023-01-29T03:27:27;102358.85;;;18.43;35.85
69239;BME280;56349;51.816;-0.026;2023-01-29T03:29:52;102359.30;;;18.64;35.86
69239;BME280;56349;51.816;-0.026;2023-01-29T03:32:17;102358.41;;;18.61;35.86
69239;BME280;56349;51.816;-0.026;2023-01-29T03:34:47;102356.83;;;18.57;35.89
69239;BME280;56349;51.816;-0.026;2023-01-29T03:37:11;102360.17;;;18.54;35.92
69239;BME280;56349;51.816;-0.026;2023-01-29T03:39:33;102356.88;;;18.52;35.92
69239;BME280;56349;51.816;-0.026;2023-01-29T03:42:03;102353.01;;;18.50;35.90
69239;BME280;56349;51.816;-0.026;2023-01-29T03:44:31;102351.39;;;18.48;35.91
69239;BME280;56349;51.816;-0.026;2023-01-29T03:46:54;102353.00;;;18.44;35.92
69239;BME280;56349;51.816;-0.026;2023-01-29T03:49:20;102349.88;;;18.42;35.95
69239;BME280;56349;51.816;-0.026;2023-01-29T03:51:48;102344.34;;;18.39;35.96
69239;BME280;56349;51.816;-0.026;2023-01-29T03:54:11;102337.83;;;18.38;35.95
69239;BME280;56349;51.816;-0.026;2023-01-29T03:56:38;102332.18;;;18.16;35.94
69239;BME280;56349;51.816;-0.026;2023-01-29T03:58:59;102330.55;;;18.16;35.90
69239;BME280;56349;51.816;-0.026;2023-01-29T04:01:28;102334.56;;;18.36;35.91
69239;BME280;56349;51.816;-0.026;2023-01-29T04:03:51;102334.05;;;18.33;35.92
69239;BME280;56349;51.816;-0.026;2023-01-29T04:06:17;102332.22;;;18.31;35.92
69239;BME280;56349;51.816;-0.026;2023-01-29T04:08:46;102329.25;;;18.29;35.92
69239;BME280;56349;51.816;-0.026;2023-01-29T04:11:09;102329.68;;;18.76;35.92
69239;BME280;56349;51.816;-0.026;2023-01-29T04:13:30;102329.47;;;18.26;35.93
69239;BME280;56349;51.816;-0.026;2023-01-29T04:15:57;102331.03;;;18.25;35.91
69239;BME280;56349;51.816;-0.026;2023-01-29T04:18:20;102329.45;;;18.22;35.92
69239;BME280;56349;51.816;-0.026;2023-01-29T04:20:46;102331.69;;;18.21;35.93
69239;BME280;56349;51.816;-0.026;2023-01-29T04:23:19;102329.54;;;18.67;35.94
69239;BME280;56349;51.816;-0.026;2023-01-29T04:25:41;102325.34;;;18.15;35.95
69239;BME280;56349;51.816;-0.026;2023-01-29T04:28:06;102321.76;;;18.39;35.96
69239;BME280;56349;51.816;-0.026;2023-01-29T04:30:37;102319.78;;;18.12;35.97
69239;BME280;56349;51.816;-0.026;2023-01-29T04:33:02;102315.10;;;18.38;36.02
69239;BME280;56349;51.816;-0.026;2023-01-29T04:35:28;102312.37;;;18.14;36.09
69239;BME280;56349;51.816;-0.026;2023-01-29T04:37:50;102314.48;;;18.20;36.11
69239;BME280;56349;51.816;-0.026;2023-01-29T04:40:17;102308.04;;;18.29;36.11
69239;BME280;56349;51.816;-0.026;2023-01-29T04:42:40;102306.01;;;18.44;36.03
69239;BME280;56349;51.816;-0.026;2023-01-29T04:45:04;102303.49;;;18.39;35.90
69239;BME280;56349;51.816;-0.026;2023-01-29T04:47:32;102300.44;;;18.58;35.71
69239;BME280;56349;51.816;-0.026;2023-01-29T04:49:58;102300.12;;;18.51;35.46
69239;BME280;56349;51.816;-0.026;2023-01-29T04:52:22;102299.41;;;18.68;35.19
69239;BME280;56349;51.816;-0.026;2023-01-29T04:54:52;102296.39;;;19.10;34.94
69239;BME280;56349;51.816;-0.026;2023-01-29T04:57:13;102294.84;;;18.91;34.74
69239;BME280;56349;51.816;-0.026;2023-01-29T04:59:39;102297.57;;;18.98;34.57
69239;BME280;56349;51.816;-0.026;2023-01-29T05:02:00;102295.00;;;19.00;34.41
69239;BME280;56349;51.816;-0.026;2023-01-29T05:04:25;102289.88;;;18.97;34.36
69239;BME280;56349;51.816;-0.026;2023-01-29T05:06:50;102287.12;;;18.92;34.39
69239;BME280;56349;51.816;-0.026;2023-01-29T05:09:16;102285.15;;;19.37;34.47
69239;BME280;56349;51.816;-0.026;2023-01-29T05:11:41;102277.43;;;19.10;34.59
69239;BME280;56349;51.816;-0.026;2023-01-29T05:14:08;102269.84;;;19.28;34.74
69239;BME280;56349;51.816;-0.026;2023-01-29T05:16:36;102265.84;;;19.22;34.91
69239;BME280;56349;51.816;-0.026;2023-01-29T05:18:57;102261.83;;;18.68;35.10
69239;BME280;56349;51.816;-0.026;2023-01-29T05:21:23;102258.80;;;19.14;35.30
69239;BME280;56349;51.816;-0.026;2023-01-29T05:26:13;102263.00;;;19.10;35.68
69239;BME280;56349;51.816;-0.026;2023-01-29T05:28:39;102261.70;;;18.61;35.87
69239;BME280;56349;51.816;-0.026;2023-01-29T05:31:05;102256.79;;;19.10;36.06
69239;BME280;56349;51.816;-0.026;2023-01-29T05:33:31;102247.25;;;18.87;36.23
69239;BME280;56349;51.816;-0.026;2023-01-29T05:35:58;102238.29;;;19.12;36.37
69239;BME280;56349;51.816;-0.026;2023-01-29T05:38:23;102233.65;;;19.14;36.50
69239;BME280;56349;51.816;-0.026;2023-01-29T05:40:49;102233.70;;;18.94;36.60
69239;BME280;56349;51.816;-0.026;2023-01-29T05:43:17;102226.72;;;18.96;36.70
69239;BME280;56349;51.816;-0.026;2023-01-29T05:45:40;102223.53;;;19.00;36.77
69239;BME280;56349;51.816;-0.026;2023-01-29T05:48:06;102216.92;;;19.03;36.86
69239;BME280;56349;51.816;-0.026;2023-01-29T05:50:32;102216.74;;;19.06;36.93
69239;BME280;56349;51.816;-0.026;2023-01-29T05:52:59;102217.13;;;19.11;36.97
69239;BME280;56349;51.816;-0.026;2023-01-29T05:55:23;102215.66;;;18.87;37.03
69239;BME280;56349;51.816;-0.026;2023-01-29T05:57:49;102222.12;;;19.40;37.06
69239;BME280;56349;51.816;-0.026;2023-01-29T06:00:16;102230.19;;;19.45;37.10
69239;BME280;56349;51.816;-0.026;2023-01-29T06:02:41;102230.23;;;19.28;37.13
69239;BME280;56349;51.816;-0.026;2023-01-29T06:05:07;102227.19;;;19.34;37.10
69239;BME280;56349;51.816;-0.026;2023-01-29T06:07:32;102226.43;;;19.38;37.09
69239;BME280;56349;51.816;-0.026;2023-01-29T06:09:57;102225.49;;;19.18;37.07
69239;BME280;56349;51.816;-0.026;2023-01-29T06:12:23;102223.89;;;19.47;37.07
69239;BME280;56349;51.816;-0.026;2023-01-29T06:14:49;102226.68;;;19.22;37.09
69239;BME280;56349;51.816;-0.026;2023-01-29T06:17:15;102226.01;;;19.51;37.11
69239;BME280;56349;51.816;-0.026;2023-01-29T06:19:41;102217.00;;;19.29;37.08
69239;BME280;56349;51.816;-0.026;2023-01-29T06:22:07;102216.72;;;19.60;37.05
69239;BME280;56349;51.816;-0.026;2023-01-29T06:24:33;102212.64;;;19.36;37.03
69239;BME280;56349;51.816;-0.026;2023-01-29T06:26:58;102210.14;;;19.39;36.99
69239;BME280;56349;51.816;-0.026;2023-01-29T06:29:24;102208.55;;;19.41;36.95
69239;BME280;56349;51.816;-0.026;2023-01-29T06:31:50;102207.45;;;19.44;36.87
69239;BME280;56349;51.816;-0.026;2023-01-29T06:34:16;102204.90;;;19.47;36.77
69239;BME280;56349;51.816;-0.026;2023-01-29T06:36:41;102205.66;;;19.47;36.68
69239;BME280;56349;51.816;-0.026;2023-01-29T06:39:08;102207.33;;;19.50;36.56
69239;BME280;56349;51.816;-0.026;2023-01-29T06:41:33;102213.60;;;19.51;36.46
69239;BME280;56349;51.816;-0.026;2023-01-29T06:43:58;102216.69;;;19.56;36.30
69239;BME280;56349;51.816;-0.026;2023-01-29T06:46:24;102215.26;;;19.56;36.21
69239;BME280;56349;51.816;-0.026;2023-01-29T06:48:50;102209.23;;;19.56;36.11
69239;BME280;56349;51.816;-0.026;2023-01-29T06:51:16;102206.85;;;19.56;36.02
69239;BME280;56349;51.816;-0.026;2023-01-29T06:53:41;102206.44;;;19.54;35.94
69239;BME280;56349;51.816;-0.026;2023-01-29T06:56:07;102204.51;;;19.77;35.90
69239;BME280;56349;51.816;-0.026;2023-01-29T06:58:34;102203.40;;;19.47;35.84
69239;BME280;56349;51.816;-0.026;2023-01-29T07:01:02;102201.85;;;19.43;35.79
69239;BME280;56349;51.816;-0.026;2023-01-29T07:03:24;102193.83;;;19.41;35.73
69239;BME280;56349;51.816;-0.026;2023-01-29T07:05:50;102191.98;;;19.40;35.66
69239;BME280;56349;51.816;-0.026;2023-01-29T07:08:15;102187.22;;;19.40;35.57
69239;BME280;56349;51.816;-0.026;2023-01-29T07:10:41;102188.36;;;19.39;35.50
69239;BME280;56349;51.816;-0.026;2023-01-29T07:13:07;102185.33;;;19.64;35.45
69239;BME280;56349;51.816;-0.026;2023-01-29T07:15:32;102173.81;;;19.34;35.40
69239;BME280;56349;51.816;-0.026;2023-01-29T07:17:59;102174.66;;;19.80;35.37
69239;BME280;56349;51.816;-0.026;2023-01-29T07:20:25;102172.18;;;19.54;35.34
69239;BME280;56349;51.816;-0.026;2023-01-29T07:22:49;102172.16;;;19.50;35.33
69239;BME280;56349;51.816;-0.026;2023-01-29T07:25:20;102173.91;;;19.22;35.29
69239;BME280;56349;51.816;-0.026;2023-01-29T07:27:40;102176.64;;;19.18;35.26
69239;BME280;56349;51.816;-0.026;2023-01-29T07:30:08;102178.81;;;19.41;35.25
69239;BME280;56349;51.816;-0.026;2023-01-29T07:32:31;102184.95;;;19.38;35.23
69239;BME280;56349;51.816;-0.026;2023-01-29T07:34:57;102180.53;;;19.36;35.22
69239;BME280;56349;51.816;-0.026;2023-01-29T07:37:23;102179.63;;;19.05;35.20
69239;BME280;56349;51.816;-0.026;2023-01-29T07:39:48;102180.88;;;19.28;35.20
69239;BME280;56349;51.816;-0.026;2023-01-29T07:42:14;102183.12;;;19.25;35.15
69239;BME280;56349;51.816;-0.026;2023-01-29T07:44:40;102182.91;;;19.28;35.18
69239;BME280;56349;51.816;-0.026;2023-01-29T07:47:06;102182.37;;;19.52;35.28
69239;BME280;56349;51.816;-0.026;2023-01-29T07:49:31;102180.08;;;19.33;35.56
69239;BME280;56349;51.816;-0.026;2023-01-29T07:51:57;102181.48;;;19.40;35.74
69239;BME280;56349;51.816;-0.026;2023-01-29T07:54:29;102181.35;;;19.10;35.80
69239;BME280;56349;51.816;-0.026;2023-01-29T07:56:49;102183.00;;;19.37;35.59
69239;BME280;56349;51.816;-0.026;2023-01-29T07:59:14;102181.96;;;19.86;35.40
69239;BME280;56349;51.816;-0.026;2023-01-29T08:01:40;102176.06;;;20.09;35.23
69239;BME280;56349;51.816;-0.026;2023-01-29T08:04:06;102172.37;;;20.08;35.04
69239;BME280;56349;51.816;-0.026;2023-01-29T08:06:31;102172.19;;;20.13;34.88
69239;BME280;56349;51.816;-0.026;2023-01-29T08:08:57;102170.25;;;20.41;34.63
69239;BME280;56349;51.816;-0.026;2023-01-29T08:11:23;102164.77;;;20.68;34.32
69239;BME280;56349;51.816;-0.026;2023-01-29T08:13:48;102166.90;;;20.69;34.00
69239;BME280;56349;51.816;-0.026;2023-01-29T08:16:14;102156.68;;;20.73;33.66
69239;BME280;56349;51.816;-0.026;2023-01-29T08:18:40;102155.65;;;21.21;33.32
69239;BME280;56349;51.816;-0.026;2023-01-29T08:21:06;102157.42;;;21.22;33.04
69239;BME280;56349;51.816;-0.026;2023-01-29T08:23:31;102154.57;;;21.44;32.73
69239;BME280;56349;51.816;-0.026;2023-01-29T08:25:57;102157.73;;;21.41;32.45
69239;BME280;56349;51.816;-0.026;2023-01-29T08:28:23;102156.70;;;21.80;32.15
69239;BME280;56349;51.816;-0.026;2023-01-29T08:30:49;102155.03;;;21.88;31.89
69239;BME280;56349;51.816;-0.026;2023-01-29T08:33:14;102156.61;;;21.87;31.70
69239;BME280;56349;51.816;-0.026;2023-01-29T08:35:40;102155.28;;;21.81;31.58
69239;BME280;56349;51.816;-0.026;2023-01-29T08:38:07;102152.14;;;21.71;31.50
69239;BME280;56349;51.816;-0.026;2023-01-29T08:40:33;102153.09;;;21.59;31.45
69239;BME280;56349;51.816;-0.026;2023-01-29T08:42:58;102154.25;;;21.44;31.46
69239;BME280;56349;51.816;-0.026;2023-01-29T08:45:23;102154.39;;;21.29;31.46
69239;BME280;56349;51.816;-0.026;2023-01-29T08:47:49;102152.30;;;21.38;31.45
69239;BME280;56349;51.816;-0.026;2023-01-29T08:50:15;102152.51;;;21.07;31.47
69239;BME280;56349;51.816;-0.026;2023-01-29T08:52:40;102147.54;;;21.17;31.50
69239;BME280;56349;51.816;-0.026;2023-01-29T08:55:07;102144.88;;;20.80;31.65
69239;BME280;56349;51.816;-0.026;2023-01-29T08:57:32;102144.93;;;20.90;31.79
69239;BME280;56349;51.816;-0.026;2023-01-29T08:59:57;102139.63;;;20.77;32.05
69239;BME280;56349;51.816;-0.026;2023-01-29T09:02:23;102142.49;;;20.64;32.08
69239;BME280;56349;51.816;-0.026;2023-01-29T09:04:49;102146.53;;;20.79;32.23
69239;BME280;56349;51.816;-0.026;2023-01-29T09:07:15;102147.45;;;20.67;32.33
69239;BME280;56349;51.816;-0.026;2023-01-29T09:09:41;102149.52;;;20.49;32.46
69239;BME280;56349;51.816;-0.026;2023-01-29T09:12:07;102149.87;;;20.30;32.60
69239;BME280;56349;51.816;-0.026;2023-01-29T09:14:33;102151.83;;;20.32;32.80
69239;BME280;56349;51.816;-0.026;2023-01-29T09:16:59;102145.75;;;19.90;32.91
69239;BME280;56349;51.816;-0.026;2023-01-29T09:19:25;102139.78;;;19.71;32.77
69239;BME280;56349;51.816;-0.026;2023-01-29T09:21:51;102142.50;;;19.98;32.93
69239;BME280;56349;51.816;-0.026;2023-01-29T09:24:17;102145.53;;;19.64;33.05
69239;BME280;56349;51.816;-0.026;2023-01-29T09:26:43;102146.70;;;19.53;33.17
69239;BME280;56349;51.816;-0.026;2023-01-29T09:29:09;102150.54;;;19.64;33.31
69239;BME280;56349;51.816;-0.026;2023-01-29T09:31:34;102151.85;;;19.54;33.54
69239;BME280;56349;51.816;-0.026;2023-01-29T09:33:59;102152.93;;;19.43;33.66
69239;BME280;56349;51.816;-0.026;2023-01-29T09:36:25;102151.67;;;19.61;33.74
69239;BME280;56349;51.816;-0.026;2023-01-29T09:38:51;102156.10;;;19.27;33.79
69239;BME280;56349;51.816;-0.026;2023-01-29T09:41:26;102156.15;;;19.20;33.85
69239;BME280;56349;51.816;-0.026;2023-01-29T09:43:46;102155.76;;;19.39;33.93
69239;BME280;56349;51.816;-0.026;2023-01-29T09:46:16;102150.59;;;19.06;33.99
69239;BME280;56349;51.816;-0.026;2023-01-29T09:48:34;102151.26;;;19.01;34.03
69239;BME280;56349;51.816;-0.026;2023-01-29T09:51:03;102149.28;;;18.96;34.07
69239;BME280;56349;51.816;-0.026;2023-01-29T09:53:29;102154.19;;;18.90;34.12
69239;BME280;56349;51.816;-0.026;2023-01-29T09:55:54;102150.35;;;18.85;34.17
69239;BME280;56349;51.816;-0.026;2023-01-29T09:58:20;102149.56;;;19.07;34.20
69239;BME280;56349;51.816;-0.026;2023-01-29T10:00:47;102142.72;;;18.76;34.25
69239;BME280;56349;51.816;-0.026;2023-01-29T10:03:19;102144.16;;;18.98;34.27
69239;BME280;56349;51.816;-0.026;2023-01-29T10:10:33;102136.89;;;19.07;34.39
69239;BME280;56349;51.816;-0.026;2023-01-29T10:12:59;102136.50;;;19.03;34.44
69239;BME280;56349;51.816;-0.026;2023-01-29T10:15:25;102134.88;;;18.50;34.45
69239;BME280;56349;51.816;-0.026;2023-01-29T10:17:51;102135.77;;;18.95;34.49
69239;BME280;56349;51.816;-0.026;2023-01-29T10:25:01;102127.53;;;18.83;34.59
69239;BME280;56349;51.816;-0.026;2023-01-29T10:27:22;102126.98;;;18.80;34.62
69239;BME280;56349;51.816;-0.026;2023-01-29T10:29:50;102121.54;;;18.28;34.64
69239;BME280;56349;51.816;-0.026;2023-01-29T10:32:16;102119.79;;;18.74;34.65
69239;BME280;56349;51.816;-0.026;2023-01-29T10:34:42;102125.64;;;18.72;34.67
69239;BME280;56349;51.816;-0.026;2023-01-29T10:37:14;102120.69;;;18.48;34.68
69239;BME280;56349;51.816;-0.026;2023-01-29T10:39:30;102118.81;;;18.70;34.68
69239;BME280;56349;51.816;-0.026;2023-01-29T10:42:04;102113.32;;;18.69;34.66
69239;BME280;56349;51.816;-0.026;2023-01-29T10:44:29;102108.96;;;18.67;34.68
69239;BME280;56349;51.816;-0.026;2023-01-29T10:46:59;102110.52;;;18.65;34.68
69239;BME280;56349;51.816;-0.026;2023-01-29T10:49:22;102106.74;;;18.62;34.71
69239;BME280;56349;51.816;-0.026;2023-01-29T10:51:49;102102.98;;;18.60;34.71
69239;BME280;56349;51.816;-0.026;2023-01-29T10:54:14;102096.06;;;18.56;34.72
69239;BME280;56349;51.816;-0.026;2023-01-29T10:56:38;102089.22;;;18.54;34.74
69239;BME280;56349;51.816;-0.026;2023-01-29T10:59:00;102085.58;;;18.52;34.74
69239;BME280;56349;51.816;-0.026;2023-01-29T11:01:20;102082.65;;;18.25;34.75
69239;BME280;56349;51.816;-0.026;2023-01-29T11:03:55;102080.78;;;18.71;34.78
69239;BME280;56349;51.816;-0.026;2023-01-29T11:06:17;102079.93;;;18.43;34.80
69239;BME280;56349;51.816;-0.026;2023-01-29T11:08:42;102077.84;;;18.40;34.81
69239;BME280;56349;51.816;-0.026;2023-01-29T11:11:07;102073.14;;;18.38;34.82
69239;BME280;56349;51.816;-0.026;2023-01-29T11:13:31;102068.34;;;18.35;34.83
69239;BME280;56349;51.816;-0.026;2023-01-29T11:15:54;102063.61;;;18.34;34.83
69239;BME280;56349;51.816;-0.026;2023-01-29T11:18:20;102053.66;;;18.34;34.81
69239;BME280;56349;51.816;-0.026;2023-01-29T11:23:23;102041.27;;;18.32;34.81
69239;BME280;56349;51.816;-0.026;2023-01-29T11:25:38;102036.39;;;18.32;34.80
69239;BME280;56349;51.816;-0.026;2023-01-29T11:28:04;102034.42;;;18.31;34.78
69239;BME280;56349;51.816;-0.026;2023-01-29T11:30:31;102030.27;;;18.29;34.80
69239;BME280;56349;51.816;-0.026;2023-01-29T11:33:06;102026.99;;;18.25;34.82
69239;BME280;56349;51.816;-0.026;2023-01-29T11:35:23;102022.79;;;18.22;34.84
69239;BME280;56349;51.816;-0.026;2023-01-29T11:37:47;102019.04;;;18.47;34.83
69239;BME280;56349;51.816;-0.026;2023-01-29T11:42:38;102014.88;;;18.17;34.83
69239;BME280;56349;51.816;-0.026;2023-01-29T11:47:29;102005.92;;;18.12;34.80
69239;BME280;56349;51.816;-0.026;2023-01-29T11:49:56;102001.58;;;18.14;34.78
69239;BME280;56349;51.816;-0.026;2023-01-29T11:52:23;102001.69;;;18.14;34.89
69239;BME280;56349;51.816;-0.026;2023-01-29T11:54:49;101997.40;;;18.14;35.06
69239;BME280;56349;51.816;-0.026;2023-01-29T11:57:24;101994.48;;;18.39;35.30
69239;BME280;56349;51.816;-0.026;2023-01-29T11:59:40;101989.67;;;18.12;35.63
69239;BME280;56349;51.816;-0.026;2023-01-29T12:04:30;101985.94;;;18.11;35.99
69239;BME280;56349;51.816;-0.026;2023-01-29T12:06:55;101985.03;;;18.10;36.10
69239;BME280;56349;51.816;-0.026;2023-01-29T12:09:23;101981.30;;;18.36;36.15
69239;BME280;56349;51.816;-0.026;2023-01-29T12:11:46;101975.53;;;18.11;36.15
69239;BME280;56349;51.816;-0.026;2023-01-29T12:14:22;101972.15;;;18.13;36.17
69239;BME280;56349;51.816;-0.026;2023-01-29T12:16:39;101961.15;;;18.16;36.15
69239;BME280;56349;51.816;-0.026;2023-01-29T12:19:10;101957.27;;;18.25;36.08
69239;BME280;56349;51.816;-0.026;2023-01-29T12:21:33;101949.31;;;18.33;36.17
69239;BME280;56349;51.816;-0.026;2023-01-29T12:23:58;101943.81;;;18.19;36.26
69239;BME280;56349;51.816;-0.026;2023-01-29T12:26:26;101939.85;;;18.55;36.28
69239;BME280;56349;51.816;-0.026;2023-01-29T12:28:53;101925.26;;;18.67;36.27
69239;BME280;56349;51.816;-0.026;2023-01-29T12:31:23;101916.33;;;18.84;36.21
69239;BME280;56349;51.816;-0.026;2023-01-29T12:33:42;101913.21;;;18.83;36.10
69239;BME280;56349;51.816;-0.026;2023-01-29T12:36:11;101910.99;;;18.82;35.95
69239;BME280;56349;51.816;-0.026;2023-01-29T12:38:29;101900.31;;;19.32;35.76
69239;BME280;56349;51.816;-0.026;2023-01-29T12:40:59;101891.31;;;19.33;35.51
69239;BME280;56349;51.816;-0.026;2023-01-29T12:43:25;101882.54;;;19.63;35.20
69239;BME280;56349;51.816;-0.026;2023-01-29T12:45:50;101880.82;;;19.47;34.91
69239;BME280;56349;51.816;-0.026;2023-01-29T12:48:15;101876.20;;;20.21;34.62
69239;BME280;56349;51.816;-0.026;2023-01-29T12:50:38;101864.83;;;20.04;34.27
69239;BME280;56349;51.816;-0.026;2023-01-29T12:53:09;101858.12;;;19.98;34.02